Terminal Aerodrome Forecast
Issued by NWS Sterling, VA

Home | Current Version | Previous Version | Text Only | Print | Product List | Glossary On
Versions: 1 2 3 4 5 6 7 8 9 10 11 12 13 14 15 16 17 18 19 20 21
000
FTUS41 KLWX 111501 AAA
TAFIAD
TAF AMD
KIAD 111501Z 1115/1218 13004KT P6SM SCT050 OVC110
     FM111600 15006KT P6SM OVC100
     FM120400 18010KT P6SM BKN050
     FM120600 19010KT 5SM -RA SCT008 OVC030
     FM120800 20009KT 5SM -RA SCT008 OVC010 WS020/21040KT
     FM121100 20008KT 5SM -RA SCT008 OVC060=

USA.gov is the U.S. government's official web portal to all federal, state and local government web resources and services.